createdAt,value
2022-11-05T00:00:31.279Z,957.87
2022-11-05T00:01:31.321Z,957.85
2022-11-05T00:02:31.263Z,957.86
2022-11-05T00:03:31.268Z,957.82
2022-11-05T00:04:31.335Z,957.86
2022-11-05T00:05:34.230Z,957.88
2022-11-05T00:06:31.229Z,957.87
2022-11-05T00:07:31.208Z,957.86
2022-11-05T00:08:31.292Z,957.92
2022-11-05T00:09:31.197Z,957.90
2022-11-05T00:10:31.191Z,957.89
2022-11-05T00:11:31.168Z,957.90
2022-11-05T00:12:31.157Z,957.92
2022-11-05T00:13:31.150Z,957.90
2022-11-05T00:14:31.161Z,957.92
2022-11-05T00:15:31.128Z,957.92
2022-11-05T00:16:31.109Z,957.95
2022-11-05T00:17:31.099Z,957.94
2022-11-05T00:18:31.109Z,957.89
2022-11-05T00:19:31.079Z,957.90
2022-11-05T00:20:34.079Z,957.95
2022-11-05T00:21:31.082Z,957.94
2022-11-05T00:22:31.052Z,957.94
2022-11-05T00:23:31.049Z,957.93
2022-11-05T00:24:31.035Z,957.95
2022-11-05T00:25:31.042Z,957.96
2022-11-05T00:26:31.006Z,957.97
2022-11-05T00:27:31.033Z,957.94
2022-11-05T00:28:31.001Z,957.96
2022-11-05T00:29:30.980Z,957.95
2022-11-05T00:30:30.972Z,957.98
2022-11-05T00:31:30.964Z,957.99
2022-11-05T00:32:30.982Z,957.95
2022-11-05T00:33:30.944Z,957.97
2022-11-05T00:34:30.924Z,958.00
2022-11-05T00:35:33.933Z,957.95
2022-11-05T00:36:30.936Z,957.96
2022-11-05T00:37:30.903Z,957.99
2022-11-05T00:38:30.899Z,958.02
2022-11-05T00:39:30.882Z,958.05
2022-11-05T00:40:30.865Z,958.08
2022-11-05T00:41:30.882Z,958.06
2022-11-05T00:42:30.855Z,958.07
2022-11-05T00:43:30.864Z,958.10
2022-11-05T00:44:30.825Z,958.09
2022-11-05T00:45:30.816Z,958.09
2022-11-05T00:46:30.815Z,958.10
2022-11-05T00:47:30.794Z,958.11
2022-11-05T00:48:30.798Z,958.17
2022-11-05T00:49:30.773Z,958.15
2022-11-05T00:50:33.757Z,958.13
2022-11-05T00:51:30.775Z,958.17
2022-11-05T00:52:30.747Z,958.14
2022-11-05T00:53:30.733Z,958.17
2022-11-05T00:54:30.931Z,958.15
2022-11-05T00:55:30.723Z,958.17
2022-11-05T00:56:30.697Z,958.14
2022-11-05T00:57:30.729Z,958.16
2022-11-05T00:58:30.708Z,958.15
2022-11-05T00:59:30.689Z,958.19
2022-11-05T01:00:30.664Z,958.17
2022-11-05T01:01:30.857Z,958.20
2022-11-05T01:02:30.801Z,958.21
2022-11-05T01:03:30.648Z,958.28
2022-11-05T01:04:30.621Z,958.24
2022-11-05T01:05:33.615Z,958.29
2022-11-05T01:06:30.623Z,958.28
2022-11-05T01:07:30.585Z,958.30
2022-11-05T01:08:31.531Z,958.36
2022-11-05T01:09:30.618Z,958.35
2022-11-05T01:10:30.610Z,958.34
2022-11-05T01:11:30.661Z,958.31
2022-11-05T01:12:30.566Z,958.33
2022-11-05T01:13:30.557Z,958.35
2022-11-05T01:14:30.520Z,958.36
2022-11-05T01:15:30.523Z,958.34
2022-11-05T01:16:30.499Z,958.37
2022-11-05T01:17:30.481Z,958.38
2022-11-05T01:18:30.471Z,958.36
2022-11-05T01:19:30.470Z,958.40
2022-11-05T01:20:33.454Z,958.41
2022-11-05T01:21:30.481Z,958.43
2022-11-05T01:22:30.431Z,958.44
2022-11-05T01:23:30.442Z,958.44
2022-11-05T01:24:30.418Z,958.44
2022-11-05T01:25:30.403Z,958.42
2022-11-05T01:26:30.391Z,958.43
2022-11-05T01:27:30.384Z,958.45
2022-11-05T01:28:30.467Z,958.45
2022-11-05T01:29:30.361Z,958.47
2022-11-05T01:30:30.356Z,958.47
2022-11-05T01:31:30.364Z,958.47
2022-11-05T01:32:30.336Z,958.46
2022-11-05T01:33:30.340Z,958.44
2022-11-05T01:34:30.326Z,958.46
2022-11-05T01:35:33.302Z,958.45
2022-11-05T01:36:30.331Z,958.51
2022-11-05T01:37:30.296Z,958.49
2022-11-05T01:38:30.287Z,958.53
2022-11-05T01:39:30.267Z,958.55
2022-11-05T01:40:30.263Z,958.56
2022-11-05T01:41:30.236Z,958.56
2022-11-05T01:42:30.236Z,958.52
2022-11-05T01:43:30.234Z,958.52
2022-11-05T01:44:30.215Z,958.53
2022-11-05T01:45:30.208Z,958.55
2022-11-05T01:46:30.196Z,958.54
2022-11-05T01:47:30.184Z,958.55
2022-11-05T01:48:30.177Z,958.60
2022-11-05T01:49:30.165Z,958.57
2022-11-05T01:50:33.177Z,958.54
2022-11-05T01:51:30.147Z,958.55
2022-11-05T01:52:30.123Z,958.55
2022-11-05T01:53:30.121Z,958.58
2022-11-05T01:54:30.116Z,958.59
2022-11-05T01:55:30.100Z,958.60
2022-11-05T01:56:30.122Z,958.58
2022-11-05T01:57:30.078Z,958.64
2022-11-05T01:58:30.077Z,958.62
2022-11-05T01:59:30.050Z,958.59
2022-11-05T02:00:30.042Z,958.60
2022-11-05T02:01:30.163Z,958.64
2022-11-05T02:02:30.123Z,958.67
2022-11-05T02:03:30.012Z,958.66
2022-11-05T02:04:30.000Z,958.66
2022-11-05T02:05:32.995Z,958.65
2022-11-05T02:06:29.993Z,958.62
2022-11-05T02:07:30.028Z,958.65
2022-11-05T02:08:29.972Z,958.59
2022-11-05T02:09:29.956Z,958.65
2022-11-05T02:10:29.947Z,958.57
2022-11-05T02:11:29.931Z,958.65
2022-11-05T02:12:29.920Z,958.63
2022-11-05T02:13:29.905Z,958.56
2022-11-05T02:14:29.899Z,958.59
2022-11-05T02:15:29.891Z,958.61
2022-11-05T02:16:29.883Z,958.67
2022-11-05T02:17:29.863Z,958.62
2022-11-05T02:18:29.901Z,958.58
2022-11-05T02:19:29.856Z,958.64
2022-11-05T02:20:32.838Z,958.67
2022-11-05T02:21:29.843Z,958.70
2022-11-05T02:22:29.822Z,958.65
2022-11-05T02:23:29.808Z,958.66
2022-11-05T02:24:29.794Z,958.65
2022-11-05T02:25:29.786Z,958.64
2022-11-05T02:26:29.776Z,958.71
2022-11-05T02:27:29.767Z,958.70
2022-11-05T02:28:29.755Z,958.73
2022-11-05T02:29:29.768Z,958.69
2022-11-05T02:30:29.832Z,958.68
2022-11-05T02:31:29.831Z,958.71
2022-11-05T02:32:29.803Z,958.69
2022-11-05T02:33:29.822Z,958.70
2022-11-05T02:34:29.788Z,958.72
2022-11-05T02:35:32.797Z,958.70
2022-11-05T02:36:29.792Z,958.71
2022-11-05T02:37:29.759Z,958.73
2022-11-05T02:38:29.747Z,958.71
2022-11-05T02:39:29.732Z,958.73
2022-11-05T02:40:29.735Z,958.72
2022-11-05T02:41:29.732Z,958.72
2022-11-05T02:42:29.713Z,958.71
2022-11-05T02:43:29.692Z,958.69
2022-11-05T02:44:29.690Z,958.75
2022-11-05T02:45:29.686Z,958.79
2022-11-05T02:46:29.682Z,958.74
2022-11-05T02:47:29.662Z,958.74
2022-11-05T02:48:29.634Z,958.76
2022-11-05T02:49:29.641Z,958.76
2022-11-05T02:50:32.624Z,958.74
2022-11-05T02:51:29.635Z,958.78
2022-11-05T02:52:29.596Z,958.79
2022-11-05T02:53:29.646Z,958.79
2022-11-05T02:54:29.584Z,958.80
2022-11-05T02:55:29.575Z,958.79
2022-11-05T02:56:29.573Z,958.84
2022-11-05T02:57:29.456Z,958.83
2022-11-05T02:58:29.443Z,958.87
2022-11-05T02:59:29.435Z,958.83
2022-11-05T03:00:29.436Z,958.83
2022-11-05T03:01:29.558Z,958.87
2022-11-05T03:02:29.486Z,958.88
2022-11-05T03:03:29.394Z,958.92
2022-11-05T03:04:29.424Z,958.93
2022-11-05T03:05:32.409Z,958.93
2022-11-05T03:06:29.385Z,958.91
2022-11-05T03:07:29.363Z,958.93
2022-11-05T03:08:29.349Z,958.92
2022-11-05T03:09:29.335Z,958.90
2022-11-05T03:10:29.320Z,958.90
2022-11-05T03:11:29.302Z,958.89
2022-11-05T03:12:29.303Z,958.91
2022-11-05T03:13:29.334Z,958.90
2022-11-05T03:14:29.289Z,958.92
2022-11-05T03:15:29.264Z,958.96
2022-11-05T03:16:29.255Z,958.94
2022-11-05T03:17:29.245Z,958.94
2022-11-05T03:18:29.248Z,958.94
2022-11-05T03:19:29.226Z,958.94
2022-11-05T03:20:32.216Z,958.92
2022-11-05T03:21:29.227Z,958.97
2022-11-05T03:22:29.201Z,958.95
2022-11-05T03:23:29.195Z,959.01
2022-11-05T03:24:29.196Z,959.02
2022-11-05T03:25:29.182Z,958.98
2022-11-05T03:26:29.153Z,959.06
2022-11-05T03:27:29.148Z,959.00
2022-11-05T03:28:29.170Z,959.02
2022-11-05T03:29:29.169Z,958.96
2022-11-05T03:30:29.115Z,959.03
2022-11-05T03:31:29.112Z,959.02
2022-11-05T03:32:29.100Z,959.03
2022-11-05T03:33:29.078Z,959.02
2022-11-05T03:34:29.081Z,959.01
2022-11-05T03:35:32.084Z,959.08
2022-11-05T03:36:29.080Z,959.04
2022-11-05T03:37:29.044Z,959.04
2022-11-05T03:38:29.035Z,959.02
2022-11-05T03:39:29.013Z,959.08
2022-11-05T03:40:29.042Z,959.07
2022-11-05T03:41:28.999Z,959.05
2022-11-05T03:42:29.001Z,959.06
2022-11-05T03:43:29.000Z,959.11
2022-11-05T03:44:29.003Z,959.13
2022-11-05T03:45:28.960Z,959.16
2022-11-05T03:46:28.967Z,959.15
2022-11-05T03:47:28.944Z,959.18
2022-11-05T03:48:29.050Z,959.21
2022-11-05T03:49:29.102Z,959.23
2022-11-05T03:50:34.748Z,959.24
2022-11-05T03:51:28.916Z,959.21
2022-11-05T03:52:28.893Z,959.22
2022-11-05T03:53:28.876Z,959.21
2022-11-05T03:54:28.872Z,959.26
2022-11-05T03:55:28.863Z,959.27
2022-11-05T03:56:28.857Z,959.29
2022-11-05T03:57:28.833Z,959.29
2022-11-05T03:58:28.832Z,959.29
2022-11-05T03:59:28.827Z,959.32
2022-11-05T04:00:28.915Z,959.34
2022-11-05T04:01:28.887Z,959.33
2022-11-05T04:02:28.918Z,959.39
2022-11-05T04:03:28.775Z,959.39
2022-11-05T04:04:28.770Z,959.44
2022-11-05T04:05:31.784Z,959.44
2022-11-05T04:06:28.760Z,959.43
2022-11-05T04:07:28.742Z,959.44
2022-11-05T04:08:28.729Z,959.46
2022-11-05T04:09:28.729Z,959.47
2022-11-05T04:10:28.705Z,959.48
2022-11-05T04:11:28.711Z,959.48
2022-11-05T04:12:28.687Z,959.44
2022-11-05T04:13:28.676Z,959.43
2022-11-05T04:14:28.667Z,959.49
2022-11-05T04:15:28.659Z,959.50
2022-11-05T04:16:28.674Z,959.50
2022-11-05T04:17:28.629Z,959.51
2022-11-05T04:18:28.631Z,959.53
2022-11-05T04:19:28.615Z,959.54
2022-11-05T04:20:31.599Z,959.57
2022-11-05T04:21:28.613Z,959.62
2022-11-05T04:22:28.580Z,959.56
2022-11-05T04:23:28.574Z,959.56
2022-11-05T04:24:28.613Z,959.59
2022-11-05T04:25:28.552Z,959.53
2022-11-05T04:26:28.547Z,959.54
2022-11-05T04:27:28.532Z,959.54
2022-11-05T04:28:28.532Z,959.59
2022-11-05T04:29:28.513Z,959.56
2022-11-05T04:30:28.503Z,959.54
2022-11-05T04:31:28.493Z,959.59
2022-11-05T04:32:28.479Z,959.61
2022-11-05T04:33:28.463Z,959.63
2022-11-05T04:34:28.537Z,959.62
2022-11-05T04:35:31.455Z,959.61
2022-11-05T04:36:28.463Z,959.64
2022-11-05T04:37:28.431Z,959.59
2022-11-05T04:38:28.514Z,959.58
2022-11-05T04:39:28.403Z,959.61
2022-11-05T04:40:28.395Z,959.60
2022-11-05T04:41:28.382Z,959.64
2022-11-05T04:42:28.414Z,959.64
2022-11-05T04:43:28.365Z,959.73
2022-11-05T04:44:28.353Z,959.69
2022-11-05T04:45:28.346Z,959.76
2022-11-05T04:46:28.344Z,959.74
2022-11-05T04:47:28.335Z,959.80
2022-11-05T04:48:28.315Z,959.79
2022-11-05T04:49:28.345Z,959.79
2022-11-05T04:50:31.293Z,959.80
2022-11-05T04:51:28.307Z,959.78
2022-11-05T04:52:28.273Z,959.79
2022-11-05T04:53:28.269Z,959.81
2022-11-05T04:54:28.246Z,959.82
2022-11-05T04:55:28.237Z,959.83
2022-11-05T04:56:28.241Z,959.85
2022-11-05T04:57:28.227Z,959.86
2022-11-05T04:58:28.214Z,959.84
2022-11-05T04:59:28.209Z,959.82
2022-11-05T05:00:28.538Z,959.86
2022-11-05T05:01:28.293Z,959.83
2022-11-05T05:02:28.169Z,959.85
2022-11-05T05:03:28.166Z,959.86
2022-11-05T05:04:28.169Z,959.87
2022-11-05T05:05:31.171Z,959.88
2022-11-05T05:06:28.150Z,959.81
2022-11-05T05:07:28.118Z,959.85
2022-11-05T05:08:28.110Z,959.85
2022-11-05T05:09:28.101Z,959.85
2022-11-05T05:10:28.091Z,959.84
2022-11-05T05:11:28.082Z,959.85
2022-11-05T05:12:28.060Z,959.83
2022-11-05T05:13:28.048Z,959.83
2022-11-05T05:14:28.050Z,959.83
2022-11-05T05:15:28.028Z,959.87
2022-11-05T05:16:28.044Z,959.88
2022-11-05T05:17:28.022Z,959.88
2022-11-05T05:18:28.031Z,959.91
2022-11-05T05:19:28.038Z,959.90
2022-11-05T05:20:30.995Z,959.95
2022-11-05T05:21:28.003Z,959.93
2022-11-05T05:22:27.964Z,959.94
2022-11-05T05:23:27.960Z,959.96
2022-11-05T05:24:28.041Z,959.94
2022-11-05T05:25:27.932Z,959.96
2022-11-05T05:26:27.923Z,959.96
2022-11-05T05:27:27.924Z,959.97
2022-11-05T05:28:27.904Z,959.97
2022-11-05T05:29:27.934Z,959.96
2022-11-05T05:30:27.884Z,960.02
2022-11-05T05:31:27.874Z,960.03
2022-11-05T05:32:28.846Z,960.00
2022-11-05T05:33:27.850Z,960.01
2022-11-05T05:34:27.852Z,960.02
2022-11-05T05:35:30.825Z,960.02
2022-11-05T05:36:27.834Z,960.03
2022-11-05T05:37:27.814Z,959.99
2022-11-05T05:38:27.796Z,960.04
2022-11-05T05:39:27.785Z,960.03
2022-11-05T05:40:27.803Z,960.06
2022-11-05T05:41:27.765Z,960.04
2022-11-05T05:42:27.756Z,960.05
2022-11-05T05:43:27.755Z,960.04
2022-11-05T05:44:27.739Z,960.05
2022-11-05T05:45:27.735Z,960.06
2022-11-05T05:46:27.726Z,960.07
2022-11-05T05:47:27.709Z,960.03
2022-11-05T05:48:27.692Z,960.11
2022-11-05T05:49:27.697Z,960.15
2022-11-05T05:50:30.631Z,960.14
2022-11-05T05:51:27.641Z,960.10
2022-11-05T05:52:27.662Z,960.13
2022-11-05T05:53:27.602Z,960.11
2022-11-05T05:54:31.903Z,960.11
2022-11-05T05:55:27.569Z,960.13
2022-11-05T05:56:27.657Z,960.16
2022-11-05T05:57:27.549Z,960.11
2022-11-05T05:58:27.541Z,960.14
2022-11-05T05:59:27.548Z,960.16
2022-11-05T06:00:27.515Z,960.17
2022-11-05T06:01:27.614Z,960.13
2022-11-05T06:02:27.627Z,960.19
2022-11-05T06:03:27.486Z,960.27
2022-11-05T06:04:27.489Z,960.26
2022-11-05T06:05:30.461Z,960.28
2022-11-05T06:06:27.492Z,960.31
2022-11-05T06:07:27.453Z,960.34
2022-11-05T06:08:27.434Z,960.32
2022-11-05T06:09:27.420Z,960.30
2022-11-05T06:10:27.433Z,960.29
2022-11-05T06:11:27.446Z,960.35
2022-11-05T06:12:27.392Z,960.31
2022-11-05T06:13:27.382Z,960.36
2022-11-05T06:14:27.372Z,960.33
2022-11-05T06:15:30.554Z,960.35
2022-11-05T06:16:27.363Z,960.38
2022-11-05T06:17:27.343Z,960.35
2022-11-05T06:18:27.333Z,960.40
2022-11-05T06:19:27.363Z,960.38
2022-11-05T06:20:30.317Z,960.43
2022-11-05T06:21:27.304Z,960.42
2022-11-05T06:22:27.289Z,960.44
2022-11-05T06:23:27.274Z,960.49
2022-11-05T06:24:27.265Z,960.50
2022-11-05T06:25:27.258Z,960.50
2022-11-05T06:26:27.252Z,960.49
2022-11-05T06:27:27.238Z,960.47
2022-11-05T06:28:27.218Z,960.51
2022-11-05T06:29:27.226Z,960.58
2022-11-05T06:30:27.314Z,960.57
2022-11-05T06:31:27.189Z,960.57
2022-11-05T06:32:27.178Z,960.59
2022-11-05T06:33:27.236Z,960.65
2022-11-05T06:34:27.224Z,960.67
2022-11-05T06:35:30.152Z,960.65
2022-11-05T06:36:27.166Z,960.67
2022-11-05T06:37:27.137Z,960.71
2022-11-05T06:38:27.125Z,960.69
2022-11-05T06:39:27.131Z,960.73
2022-11-05T06:40:27.107Z,960.71
2022-11-05T06:41:27.157Z,960.72
2022-11-05T06:42:28.086Z,960.72
2022-11-05T06:43:27.079Z,960.75
2022-11-05T06:44:27.069Z,960.73
2022-11-05T06:45:27.042Z,960.76
2022-11-05T06:46:27.038Z,960.77
2022-11-05T06:47:27.035Z,960.80
2022-11-05T06:48:27.020Z,960.83
2022-11-05T06:49:27.008Z,960.82
2022-11-05T06:50:29.996Z,960.84
2022-11-05T06:51:27.010Z,960.86
2022-11-05T06:52:26.997Z,960.86
2022-11-05T06:53:26.968Z,960.89
2022-11-05T06:54:26.958Z,960.90
2022-11-05T06:55:26.947Z,960.90
2022-11-05T06:56:26.938Z,960.90
2022-11-05T06:57:26.927Z,960.93
2022-11-05T06:58:27.070Z,960.96
2022-11-05T06:59:26.902Z,960.98
2022-11-05T07:00:26.916Z,961.01
2022-11-05T07:01:27.035Z,960.99
2022-11-05T07:02:26.941Z,961.07
2022-11-05T07:03:26.862Z,961.05
2022-11-05T07:04:26.852Z,961.05
2022-11-05T07:05:29.848Z,961.08
2022-11-05T07:06:26.850Z,961.07
2022-11-05T07:07:26.827Z,961.12
2022-11-05T07:08:26.882Z,961.15
2022-11-05T07:09:26.813Z,961.18
2022-11-05T07:10:26.785Z,961.14
2022-11-05T07:11:26.824Z,961.20
2022-11-05T07:12:26.765Z,961.21
2022-11-05T07:13:26.761Z,961.23
2022-11-05T07:14:26.745Z,961.21
2022-11-05T07:15:26.748Z,961.25
2022-11-05T07:16:26.725Z,961.22
2022-11-05T07:17:26.716Z,961.26
2022-11-05T07:18:26.741Z,961.25
2022-11-05T07:19:26.708Z,961.28
2022-11-05T07:20:33.816Z,961.31
2022-11-05T07:21:26.697Z,961.34
2022-11-05T07:22:26.673Z,961.33
2022-11-05T07:23:26.707Z,961.28
2022-11-05T07:24:26.646Z,961.29
2022-11-05T07:25:26.634Z,961.33
2022-11-05T07:26:30.494Z,961.33
2022-11-05T07:27:26.615Z,961.35
2022-11-05T07:28:26.608Z,961.37
2022-11-05T07:29:26.590Z,961.40
2022-11-05T07:30:26.587Z,961.40
2022-11-05T07:31:26.604Z,961.42
2022-11-05T07:32:26.556Z,961.43
2022-11-05T07:33:26.546Z,961.41
2022-11-05T07:34:26.552Z,961.49
2022-11-05T07:35:29.527Z,961.47
2022-11-05T07:36:26.538Z,961.54
2022-11-05T07:37:26.523Z,961.56
2022-11-05T07:38:26.506Z,961.51
2022-11-05T07:39:26.493Z,961.61
2022-11-05T07:40:26.496Z,961.63
2022-11-05T07:41:26.474Z,961.64
2022-11-05T07:42:26.503Z,961.67
2022-11-05T07:43:26.442Z,961.62
2022-11-05T07:44:26.447Z,961.68
2022-11-05T07:45:26.423Z,961.68
2022-11-05T07:46:26.417Z,961.71
2022-11-05T07:47:26.412Z,961.72
2022-11-05T07:48:26.402Z,961.68
2022-11-05T07:49:26.396Z,961.72
2022-11-05T07:50:29.371Z,961.74
2022-11-05T07:51:26.384Z,961.67
2022-11-05T07:52:26.354Z,961.71
2022-11-05T07:53:26.433Z,961.75
2022-11-05T07:54:26.330Z,961.75
2022-11-05T07:55:26.311Z,961.76
2022-11-05T07:56:26.314Z,961.74
2022-11-05T07:57:26.305Z,961.74
2022-11-05T07:58:26.394Z,961.76
2022-11-05T07:59:26.272Z,961.76
2022-11-05T08:00:26.342Z,961.78
2022-11-05T08:01:26.494Z,961.76
2022-11-05T08:02:26.445Z,961.79
2022-11-05T08:03:26.421Z,961.78
2022-11-05T08:04:26.226Z,961.79
2022-11-05T08:05:29.213Z,961.77
2022-11-05T08:06:26.226Z,961.79
2022-11-05T08:07:26.222Z,961.84
2022-11-05T08:08:26.194Z,961.82
2022-11-05T08:09:26.197Z,961.85
2022-11-05T08:10:26.300Z,961.86
2022-11-05T08:11:26.157Z,961.85
2022-11-05T08:12:26.154Z,961.86
2022-11-05T08:13:26.166Z,961.88
2022-11-05T08:14:26.119Z,961.88
2022-11-05T08:15:26.121Z,961.87
2022-11-05T08:16:26.106Z,961.95
2022-11-05T08:17:26.101Z,961.90
2022-11-05T08:18:26.111Z,961.91
2022-11-05T08:19:26.080Z,961.95
2022-11-05T08:20:29.073Z,961.96
2022-11-05T08:21:26.103Z,961.96
2022-11-05T08:22:26.039Z,961.97
2022-11-05T08:23:26.044Z,961.99
2022-11-05T08:24:26.021Z,961.96
2022-11-05T08:25:47.029Z,962.00
2022-11-05T08:26:25.999Z,961.98
2022-11-05T08:27:26.004Z,961.97
2022-11-05T08:28:26.008Z,961.97
2022-11-05T08:29:25.981Z,962.03
2022-11-05T08:30:25.960Z,962.01
2022-11-05T08:31:25.950Z,962.02
2022-11-05T08:32:25.940Z,961.99
2022-11-05T08:33:26.022Z,961.99
2022-11-05T08:34:25.929Z,961.99
2022-11-05T08:35:28.925Z,962.01
2022-11-05T08:36:25.921Z,962.03
2022-11-05T08:37:25.891Z,961.98
2022-11-05T08:38:25.883Z,961.99
2022-11-05T08:39:25.873Z,961.98
2022-11-05T08:40:25.865Z,961.98
2022-11-05T08:41:25.881Z,962.00
2022-11-05T08:42:25.830Z,962.02
2022-11-05T08:43:25.844Z,962.02
2022-11-05T08:44:25.818Z,962.03
2022-11-05T08:45:25.811Z,962.06
2022-11-05T08:46:25.783Z,962.07
2022-11-05T08:47:25.781Z,962.11
2022-11-05T08:48:25.814Z,962.12
2022-11-05T08:49:25.753Z,962.13
2022-11-05T08:50:28.824Z,962.14
2022-11-05T08:51:25.754Z,962.17
2022-11-05T08:52:25.749Z,962.20
2022-11-05T08:53:25.722Z,962.19
2022-11-05T08:54:25.725Z,962.18
2022-11-05T08:55:25.707Z,962.24
2022-11-05T08:56:25.708Z,962.20
2022-11-05T08:57:25.674Z,962.24
2022-11-05T08:58:25.674Z,962.19
2022-11-05T08:59:25.656Z,962.24
2022-11-05T09:00:25.751Z,962.30
2022-11-05T09:01:25.738Z,962.27
2022-11-05T09:02:25.795Z,962.31
2022-11-05T09:03:25.636Z,962.27
2022-11-05T09:04:25.622Z,962.25
2022-11-05T09:05:28.617Z,962.31
2022-11-05T09:06:25.602Z,962.43
2022-11-05T09:07:25.576Z,962.33
2022-11-05T09:08:25.573Z,962.38
2022-11-05T09:09:25.551Z,962.34
2022-11-05T09:10:25.554Z,962.37
2022-11-05T09:11:37.757Z,962.39
2022-11-05T09:12:26.529Z,962.37
2022-11-05T09:13:25.912Z,962.37
2022-11-05T09:14:25.507Z,962.39
2022-11-05T09:15:25.499Z,962.36
2022-11-05T09:16:25.499Z,962.34
2022-11-05T09:17:25.479Z,962.38
2022-11-05T09:18:25.499Z,962.37
2022-11-05T09:19:25.460Z,962.37
2022-11-05T09:20:28.450Z,962.41
2022-11-05T09:21:25.448Z,962.38
2022-11-05T09:22:25.421Z,962.40
2022-11-05T09:23:25.411Z,962.38
2022-11-05T09:24:25.402Z,962.43
2022-11-05T09:25:25.433Z,962.38
2022-11-05T09:26:25.378Z,962.40
2022-11-05T09:27:25.362Z,962.42
2022-11-05T09:28:25.363Z,962.41
2022-11-05T09:29:25.340Z,962.41
2022-11-05T09:30:25.442Z,962.43
2022-11-05T09:31:25.340Z,962.43
2022-11-05T09:32:25.323Z,962.48
2022-11-05T09:33:25.306Z,962.51
2022-11-05T09:34:25.293Z,962.49
2022-11-05T09:35:28.313Z,962.46
2022-11-05T09:36:25.294Z,962.47
2022-11-05T09:37:25.271Z,962.51
2022-11-05T09:38:25.273Z,962.51
2022-11-05T09:39:25.235Z,962.54
2022-11-05T09:40:25.242Z,962.59
2022-11-05T09:41:25.218Z,962.59
2022-11-05T09:42:25.224Z,962.60
2022-11-05T09:43:30.384Z,962.59
2022-11-05T09:44:25.194Z,962.63
2022-11-05T09:45:25.203Z,962.64
2022-11-05T09:46:25.165Z,962.66
2022-11-05T09:47:25.164Z,962.60
2022-11-05T09:48:25.145Z,962.67
2022-11-05T09:49:25.139Z,962.66
2022-11-05T09:50:28.156Z,962.66
2022-11-05T09:51:25.155Z,962.69
2022-11-05T09:52:25.103Z,962.69
2022-11-05T09:53:25.095Z,962.65
2022-11-05T09:54:25.087Z,962.66
2022-11-05T09:55:25.078Z,962.69
2022-11-05T09:56:25.071Z,962.69
2022-11-05T09:57:25.054Z,962.70
2022-11-05T09:58:28.736Z,962.69
2022-11-05T09:59:25.040Z,962.70
2022-11-05T10:00:25.028Z,962.68
2022-11-05T10:01:25.225Z,962.72
2022-11-05T10:02:25.049Z,962.72
2022-11-05T10:03:24.987Z,962.73
2022-11-05T10:04:24.978Z,962.76
2022-11-05T10:05:28.035Z,962.74
2022-11-05T10:06:24.990Z,962.79
2022-11-05T10:07:24.947Z,962.78
2022-11-05T10:08:24.949Z,962.81
2022-11-05T10:09:24.930Z,962.78
2022-11-05T10:10:24.919Z,962.81
2022-11-05T10:11:24.915Z,962.82
2022-11-05T10:12:24.921Z,962.82
2022-11-05T10:13:24.890Z,962.84
2022-11-05T10:14:24.884Z,962.83
2022-11-05T10:15:24.860Z,962.84
2022-11-05T10:16:24.895Z,962.84
2022-11-05T10:17:24.843Z,962.86
2022-11-05T10:18:24.832Z,962.83
2022-11-05T10:19:24.871Z,962.88
2022-11-05T10:20:28.764Z,962.89
2022-11-05T10:21:51.606Z,962.94
2022-11-05T10:22:25.784Z,962.95
2022-11-05T10:23:24.782Z,962.98
2022-11-05T10:24:24.772Z,962.98
2022-11-05T10:25:24.762Z,962.96
2022-11-05T10:26:24.756Z,963.00
2022-11-05T10:27:24.750Z,963.04
2022-11-05T10:28:24.836Z,963.07
2022-11-05T10:29:24.715Z,963.06
2022-11-05T10:30:24.709Z,963.04
2022-11-05T10:31:24.695Z,963.10
2022-11-05T10:32:25.685Z,963.08
2022-11-05T10:33:24.687Z,963.11
2022-11-05T10:34:24.665Z,963.07
2022-11-05T10:35:27.665Z,963.06
2022-11-05T10:36:24.657Z,963.06
2022-11-05T10:37:24.734Z,963.11
2022-11-05T10:38:24.645Z,963.05
2022-11-05T10:39:24.606Z,963.06
2022-11-05T10:40:24.600Z,963.06
2022-11-05T10:41:24.587Z,963.05
2022-11-05T10:42:24.598Z,963.07
2022-11-05T10:43:24.604Z,963.07
2022-11-05T10:44:24.560Z,963.05
2022-11-05T10:45:24.551Z,963.06
2022-11-05T10:46:24.540Z,963.04
2022-11-05T10:47:24.526Z,963.05
2022-11-05T10:48:24.521Z,963.03
2022-11-05T10:49:24.533Z,963.03
2022-11-05T10:50:27.498Z,963.02
2022-11-05T10:51:24.514Z,963.06
2022-11-05T10:52:24.470Z,963.03
2022-11-05T10:53:24.479Z,963.01
2022-11-05T10:54:24.477Z,963.06
2022-11-05T10:55:24.558Z,963.00
2022-11-05T10:56:24.432Z,962.97
2022-11-05T10:57:24.430Z,963.02
2022-11-05T10:58:24.411Z,963.03
2022-11-05T10:59:24.402Z,963.03
2022-11-05T11:00:24.425Z,963.02
2022-11-05T11:01:24.573Z,962.98
2022-11-05T11:02:24.423Z,963.05
2022-11-05T11:03:24.361Z,963.06
2022-11-05T11:04:24.365Z,963.03
2022-11-05T11:05:28.394Z,963.01
2022-11-05T11:06:24.361Z,963.01
2022-11-05T11:07:24.323Z,963.02
2022-11-05T11:08:24.313Z,963.08
2022-11-05T11:09:24.317Z,963.08
2022-11-05T11:10:24.313Z,963.04
2022-11-05T11:11:24.301Z,963.02
2022-11-05T11:12:24.303Z,963.04
2022-11-05T11:13:24.298Z,963.03
2022-11-05T11:14:24.261Z,963.07
2022-11-05T11:15:24.263Z,963.09
2022-11-05T11:16:24.341Z,963.11
2022-11-05T11:17:24.214Z,963.09
2022-11-05T11:18:24.207Z,963.09
2022-11-05T11:19:24.201Z,963.10
2022-11-05T11:20:27.186Z,963.03
2022-11-05T11:21:24.216Z,963.00
2022-11-05T11:22:24.175Z,962.97
2022-11-05T11:23:24.157Z,962.95
2022-11-05T11:24:24.157Z,962.98
2022-11-05T11:25:24.130Z,962.93
2022-11-05T11:26:24.126Z,962.94
2022-11-05T11:27:24.216Z,962.94
2022-11-05T11:28:24.099Z,962.94
2022-11-05T11:29:24.089Z,962.93
2022-11-05T11:30:24.091Z,962.91
2022-11-05T11:31:24.083Z,962.94
2022-11-05T11:32:24.060Z,962.90
2022-11-05T11:33:24.084Z,962.91
2022-11-05T11:34:24.051Z,962.95
2022-11-05T11:35:27.033Z,962.93
2022-11-05T11:36:24.053Z,962.94
2022-11-05T11:37:24.019Z,962.95
2022-11-05T11:38:24.023Z,962.94
2022-11-05T11:39:23.981Z,962.98
2022-11-05T11:40:23.996Z,962.98
2022-11-05T11:41:23.971Z,962.96
2022-11-05T11:42:23.961Z,963.00
2022-11-05T11:43:24.044Z,963.00
2022-11-05T11:44:23.943Z,963.02
2022-11-05T11:45:23.927Z,962.97
2022-11-05T11:46:23.920Z,962.97
2022-11-05T11:47:23.900Z,962.97
2022-11-05T11:48:23.933Z,963.01
2022-11-05T11:49:23.883Z,963.00
2022-11-05T11:50:26.873Z,962.99
2022-11-05T11:51:23.894Z,962.97
2022-11-05T11:52:23.879Z,963.02
2022-11-05T11:53:23.858Z,963.01
2022-11-05T11:54:27.232Z,963.04
2022-11-05T11:55:23.825Z,963.04
2022-11-05T11:56:23.824Z,963.05
2022-11-05T11:57:23.802Z,963.07
2022-11-05T11:58:23.808Z,963.05
2022-11-05T11:59:40.589Z,963.02
2022-11-05T12:00:24.776Z,963.07
2022-11-05T12:01:23.796Z,963.02
2022-11-05T12:02:23.885Z,963.00
2022-11-05T12:03:23.815Z,963.03
2022-11-05T12:04:23.748Z,963.00
2022-11-05T12:05:26.717Z,963.01
2022-11-05T12:06:23.721Z,963.01
2022-11-05T12:07:23.697Z,962.98
2022-11-05T12:08:23.692Z,963.03
2022-11-05T12:09:23.676Z,962.99
2022-11-05T12:10:23.665Z,963.03
2022-11-05T12:11:23.659Z,963.01
2022-11-05T12:12:23.640Z,963.04
2022-11-05T12:13:23.652Z,962.99
2022-11-05T12:14:23.630Z,962.98
2022-11-05T12:15:23.639Z,963.01
2022-11-05T12:16:23.607Z,962.97
2022-11-05T12:17:23.597Z,962.99
2022-11-05T12:18:23.578Z,962.98
2022-11-05T12:19:23.579Z,963.00
2022-11-05T12:20:26.591Z,963.00
2022-11-05T12:21:41.095Z,962.99
2022-11-05T12:22:24.577Z,963.03
2022-11-05T12:23:23.533Z,963.01
2022-11-05T12:24:23.523Z,963.01
2022-11-05T12:25:23.511Z,963.00
2022-11-05T12:26:23.492Z,963.02
2022-11-05T12:27:23.485Z,962.97
2022-11-05T12:28:23.477Z,962.95